Capitol Logistics 286


KAFW
Fort Worth Alliance Airport
Fort Worth, Texas, US
KSEA
Seattle-Tacoma International Airport
Seattle, Washington, US

Activity Log

Date Flight Route Aircraft Duration
No Flights Yet

Route Details

Aircraft Information
Primary: Boeing 767-300BDSF
Backup: Not Available
Route Data
Distance: 1428nm
Sched. Duration: 3h 45m
Avg. Duration: 0h 00m (-345m)
Times Flown: 0
Recm'd Route: SWABR5 HUDAD PNH ALS JNC TCH TWF BKE PDT CHINS3
Planned Altitude: 34,000ft
Origin Wx: KAFW 231353Z 16011KT 10SM BKN140 OVC200 11/07 A3004 RMK AO2 SLP174 T01060072
Dest. Wx: KSEA 231353Z 16015KT 7SM -RA OVC037 08/04 A2978 RMK AO2 SLP093 P0001 T00780039
Notes:

Financial History
Total Freight: 0lbs
Average Load: 0lbs/flt
Fuel Used: 0lbs
Avg. Fuel Used: 0lbs/flt
Fuel Expense: $0
Avg. Fuel Expense: $0
Avg. Fuel Cost: $0/lbs
Total Gross Income: $0
Pilot Pay: $0
Total Expenses: $0
Total Revenue: $0
Average Revenue: $0